Time;durP1;ratioP1;P1;durP2;ratioP2;P2;SDS_P1;SDS_P2;PMS_P1;PMS_P2;Temp;Humidity;BMP_temperature;BMP_pressure;BME280_temperature;BME280_humidity;BME280_pressure;Samples;Min_cycle;Max_cycle;Signal;HPM_P1;HPM_P2
2022/07/10 00:02:04;;;;;;;10.07;7.93;;;17.50;11.20;;;;;;5019456;28;20187;-77
2022/07/10 00:04:29;;;;;;;9.17;7.93;;;17.50;12.90;;;;;;5011812;28;20201;-75
2022/07/10 00:06:55;;;;;;;8.93;7.30;;;17.60;12.10;;;;;;4999235;28;20202;-75
2022/07/10 00:09:22;;;;;;;8.20;7.40;;;17.70;9.30;;;;;;5008605;28;20533;-75
2022/07/10 00:11:47;;;;;;;10.13;7.73;;;17.60;8.20;;;;;;5006761;28;20437;-75
2022/07/10 00:14:13;;;;;;;9.70;8.23;;;17.60;8.50;;;;;;5007595;28;20916;-75
2022/07/10 00:16:38;;;;;;;9.47;7.63;;;17.60;11.00;;;;;;5008633;28;20537;-76
2022/07/10 00:19:04;;;;;;;10.30;7.67;;;17.50;11.90;;;;;;5007826;28;20179;-74
2022/07/10 00:21:29;;;;;;;13.07;8.93;;;17.50;13.30;;;;;;5005847;28;20171;-75
2022/07/10 00:23:55;;;;;;;10.27;8.27;;;17.50;14.20;;;;;;5004913;28;20446;-75
2022/07/10 00:26:20;;;;;;;10.13;8.00;;;17.60;14.80;;;;;;5004207;28;20194;-75
2022/07/10 00:28:46;;;;;;;19.90;9.20;;;17.60;15.00;;;;;;5006720;28;20197;-76
2022/07/10 00:31:11;;;;;;;10.23;8.00;;;17.50;15.70;;;;;;5008893;28;20228;-75
2022/07/10 00:33:38;;;;;;;12.40;8.70;;;17.50;14.60;;;;;;5011010;28;20230;-76
2022/07/10 00:36:05;;;;;;;10.50;9.40;;;17.50;16.20;;;;;;5019215;28;20280;-75
2022/07/10 00:38:30;;;;;;;13.70;10.40;;;17.60;18.10;;;;;;5010460;28;20508;-75
2022/07/10 00:40:56;;;;;;;12.27;9.83;;;17.70;17.30;;;;;;5006557;28;20532;-75
2022/07/10 00:43:22;;;;;;;13.17;10.80;;;17.70;16.10;;;;;;5005707;28;20213;-77
2022/07/10 00:45:49;;;;;;;12.07;10.67;;;17.80;15.00;;;;;;5006525;28;20281;-75
2022/07/10 00:48:14;;;;;;;12.77;10.90;;;17.80;15.50;;;;;;5007182;28;20182;-75
2022/07/10 00:50:42;;;;;;;13.90;11.70;;;17.70;16.00;;;;;;5011984;28;20528;-75
2022/07/10 00:53:08;;;;;;;13.20;11.80;;;17.60;18.20;;;;;;5005137;28;20621;-75
2022/07/10 00:55:36;;;;;;;13.13;11.23;;;17.60;20.00;;;;;;5007886;28;20596;-75
2022/07/10 00:58:01;;;;;;;17.87;12.47;;;17.60;21.00;;;;;;4999588;28;20657;-75
2022/07/10 01:00:28;;;;;;;13.87;12.23;;;17.60;20.90;;;;;;5003124;28;20440;-76
2022/07/10 01:02:53;;;;;;;14.23;10.80;;;17.70;20.50;;;;;;5000605;28;20183;-76
2022/07/10 01:05:19;;;;;;;12.33;10.13;;;17.70;19.10;;;;;;5014114;28;20447;-77
2022/07/10 01:07:45;;;;;;;11.03;9.90;;;17.70;17.20;;;;;;5006335;28;20198;-75
2022/07/10 01:10:10;;;;;;;13.17;10.40;;;17.70;16.10;;;;;;5007334;28;20610;-75
2022/07/10 01:12:37;;;;;;;12.13;9.50;;;17.70;16.40;;;;;;5012292;28;20529;-75
2022/07/10 01:15:03;;;;;;;10.17;9.17;;;17.70;15.90;;;;;;5007243;28;20234;-75
2022/07/10 01:17:29;;;;;;;14.00;9.13;;;17.70;15.80;;;;;;5006144;28;20464;-75
2022/07/10 01:19:55;;;;;;;10.53;9.37;;;17.70;15.60;;;;;;5007452;28;20479;-75
2022/07/10 01:22:21;;;;;;;10.50;9.13;;;17.70;14.30;;;;;;5002948;28;20725;-75
2022/07/10 01:24:47;;;;;;;10.77;9.67;;;17.70;14.90;;;;;;5006883;28;20260;-76
2022/07/10 01:27:12;;;;;;;10.93;9.50;;;17.60;15.80;;;;;;5006831;28;20522;-75
2022/07/10 01:29:39;;;;;;;15.27;10.23;;;17.60;15.90;;;;;;5013321;28;20181;-75
2022/07/10 01:32:05;;;;;;;11.30;10.10;;;17.50;15.80;;;;;;5009427;28;20217;-75
2022/07/10 01:34:30;;;;;;;11.03;9.93;;;17.50;16.20;;;;;;5006143;28;20831;-75
2022/07/10 01:36:56;;;;;;;13.63;10.23;;;17.50;16.80;;;;;;4998237;28;20206;-75
2022/07/10 01:39:21;;;;;;;12.50;10.40;;;17.50;16.90;;;;;;5014038;28;20692;-76
2022/07/10 01:41:47;;;;;;;11.83;9.90;;;17.50;17.10;;;;;;5007289;28;20170;-75
2022/07/10 01:44:13;;;;;;;11.90;10.10;;;17.40;17.50;;;;;;5006973;28;20248;-75
2022/07/10 01:46:48;;;;;;;11.80;9.87;;;17.40;16.70;;;;;;5001665;28;20254;-76
2022/07/10 01:49:14;;;;;;;11.87;9.80;;;17.30;17.30;;;;;;5016519;28;20169;-75
2022/07/10 01:51:40;;;;;;;13.07;10.50;;;17.40;17.80;;;;;;5019343;28;20433;-75
2022/07/10 01:54:06;;;;;;;12.03;10.13;;;17.40;17.50;;;;;;5004958;28;20437;-76
2022/07/10 01:56:32;;;;;;;10.77;9.60;;;17.50;17.00;;;;;;5006141;28;20311;-75
2022/07/10 01:59:00;;;;;;;10.00;9.00;;;17.50;15.80;;;;;;5010050;28;20174;-75
2022/07/10 02:01:25;;;;;;;9.50;8.47;;;17.50;15.80;;;;;;5010874;28;20436;-76
2022/07/10 02:06:35;;;;;;;11.00;7.47;;;17.60;14.70;;;;;;5005444;28;20280;-75
2022/07/10 02:09:00;;;;;;;8.30;6.80;;;17.50;14.10;;;;;;5005606;28;21078;-75
2022/07/10 02:11:26;;;;;;;8.80;6.63;;;17.50;13.60;;;;;;4989776;28;20182;-76
2022/07/10 02:13:51;;;;;;;11.00;7.53;;;17.50;12.50;;;;;;5016724;28;20201;-76
2022/07/10 02:16:17;;;;;;;9.63;6.83;;;17.40;11.30;;;;;;5004960;28;20190;-75
2022/07/10 02:18:42;;;;;;;9.00;6.53;;;17.40;10.80;;;;;;5001907;28;20187;-76
2022/07/10 02:21:08;;;;;;;10.50;6.40;;;17.40;10.00;;;;;;4986522;28;20305;-75
2022/07/10 02:23:34;;;;;;;7.57;6.20;;;17.30;9.10;;;;;;4987854;28;20250;-76
2022/07/10 02:26:00;;;;;;;11.70;6.30;;;17.40;5.30;;;;;;5001595;28;20183;-76
2022/07/10 02:28:25;;;;;;;11.53;5.83;;;17.40;7.00;;;;;;5006342;28;20425;-76
2022/07/10 02:30:51;;;;;;;9.10;6.23;;;17.30;6.10;;;;;;5013278;28;20182;-75
2022/07/10 02:33:17;;;;;;;6.93;5.20;;;17.90;7.50;;;;;;5013571;28;20209;-75
2022/07/10 02:35:42;;;;;;;6.57;5.83;;;17.20;6.30;;;;;;5002801;28;20243;-76
2022/07/10 02:38:08;;;;;;;11.97;5.70;;;17.20;6.80;;;;;;5002284;28;20252;-75
2022/07/10 02:40:33;;;;;;;6.83;5.00;;;17.20;8.40;;;;;;5006054;28;20744;-75
2022/07/10 02:42:59;;;;;;;5.93;5.33;;;17.10;6.90;;;;;;5016458;28;20220;-76
2022/07/10 02:45:24;;;;;;;7.50;5.03;;;17.10;6.80;;;;;;5013249;28;20187;-76
2022/07/10 02:47:49;;;;;;;5.97;5.23;;;17.10;6.60;;;;;;4990823;28;20198;-76
2022/07/10 02:50:15;;;;;;;10.50;5.00;;;17.10;6.80;;;;;;5005412;28;20181;-76
2022/07/10 02:52:40;;;;;;;5.30;4.80;;;17.20;9.30;;;;;;5000891;28;20205;-75
2022/07/10 02:55:06;;;;;;;6.93;5.20;;;17.10;5.40;;;;;;5007041;28;20202;-75
2022/07/10 02:57:32;;;;;;;6.30;4.47;;;17.20;5.60;;;;;;5007678;28;20226;-76
2022/07/10 02:59:57;;;;;;;7.13;4.73;;;17.20;4.30;;;;;;5013010;28;20849;-76
2022/07/10 03:02:23;;;;;;;7.27;5.00;;;17.30;5.60;;;;;;5001567;28;20581;-76
2022/07/10 03:04:48;;;;;;;6.57;4.90;;;17.40;2.60;;;;;;5010219;28;20193;-76
2022/07/10 03:07:14;;;;;;;8.57;4.30;;;17.50;1.50;;;;;;5015334;28;20584;-76
2022/07/10 03:09:39;;;;;;;6.80;4.90;;;17.60;1.00;;;;;;5004776;28;20202;-76
2022/07/10 03:12:05;;;;;;;7.13;4.57;;;17.60;1.00;;;;;;5007440;28;20321;-76
2022/07/10 03:14:31;;;;;;;8.87;4.70;;;17.60;1.00;;;;;;4992827;28;20240;-78
2022/07/10 03:16:56;;;;;;;7.10;4.87;;;17.60;1.00;;;;;;5005168;28;20441;-77
2022/07/10 03:19:22;;;;;;;4.90;4.23;;;17.70;1.00;;;;;;4992530;28;20174;-76
2022/07/10 03:21:47;;;;;;;5.60;4.60;;;17.70;1.00;;;;;;5010368;28;20186;-76
2022/07/10 03:24:13;;;;;;;8.73;4.70;;;17.70;1.00;;;;;;5007243;28;20254;-76
2022/07/10 03:26:38;;;;;;;6.33;4.93;;;17.70;1.00;;;;;;5014245;28;20222;-76
2022/07/10 03:29:04;;;;;;;6.10;4.50;;;17.60;1.00;;;;;;5016823;28;20204;-76
2022/07/10 03:31:30;;;;;;;6.50;4.43;;;17.70;1.00;;;;;;4999086;28;20236;-76
2022/07/10 03:33:55;;;;;;;5.57;4.00;;;17.60;1.00;;;;;;5004221;28;20252;-75
2022/07/10 03:36:21;;;;;;;6.10;4.10;;;17.60;1.00;;;;;;5004891;28;20201;-76
2022/07/10 03:38:46;;;;;;;7.77;4.20;;;17.60;1.00;;;;;;5005117;28;20645;-75
2022/07/10 03:41:13;;;;;;;5.77;4.07;;;17.60;1.00;;;;;;5003539;28;20436;-75
2022/07/10 03:43:39;;;;;;;8.23;4.30;;;17.70;1.00;;;;;;5006588;28;20222;-76
2022/07/10 03:46:04;;;;;;;5.83;3.83;;;17.70;1.00;;;;;;5009489;28;20638;-76
2022/07/10 03:48:30;;;;;;;6.73;3.73;;;17.60;1.00;;;;;;5010157;28;20182;-76
2022/07/10 03:50:56;;;;;;;5.97;3.77;;;17.60;1.00;;;;;;5009418;28;20533;-75
2022/07/10 03:53:21;;;;;;;7.50;3.77;;;17.60;1.00;;;;;;5006993;28;20564;-75
2022/07/10 03:55:47;;;;;;;4.70;3.87;;;17.50;1.00;;;;;;5008451;28;20210;-75
2022/07/10 03:58:12;;;;;;;5.50;3.53;;;17.40;1.00;;;;;;5005920;28;20186;-75
2022/07/10 04:00:38;;;;;;;4.23;3.80;;;17.50;1.00;;;;;;5017945;28;20245;-76
2022/07/10 04:03:07;;;;;;;4.83;3.70;;;17.40;1.00;;;;;;5011716;28;20179;-75
2022/07/10 04:05:34;;;;;;;5.73;3.83;;;17.40;1.00;;;;;;5007870;28;20178;-75
2022/07/10 04:08:01;;;;;;;6.27;3.87;;;17.50;1.00;;;;;;5005422;28;20985;-76
2022/07/10 04:10:28;;;;;;;5.73;3.30;;;17.40;1.00;;;;;;5006905;28;20766;-75
2022/07/10 04:12:54;;;;;;;7.67;3.60;;;17.30;1.00;;;;;;5006774;28;20468;-75
2022/07/10 04:15:20;;;;;;;6.80;3.63;;;17.30;1.00;;;;;;5008026;28;20433;-75
2022/07/10 04:17:47;;;;;;;6.03;3.70;;;17.20;1.00;;;;;;5007414;28;20468;-76
2022/07/10 04:20:13;;;;;;;5.47;3.43;;;17.20;1.00;;;;;;4989289;28;20435;-76
2022/07/10 04:22:39;;;;;;;4.33;3.47;;;17.20;1.00;;;;;;5005646;28;20568;-76
2022/07/10 04:25:05;;;;;;;4.73;3.30;;;17.30;1.00;;;;;;5008373;28;20512;-75
2022/07/10 04:27:31;;;;;;;7.80;3.63;;;17.40;1.00;;;;;;5008397;28;20202;-76
2022/07/10 04:29:57;;;;;;;4.90;3.20;;;17.50;1.00;;;;;;5011556;28;20432;-77
2022/07/10 04:32:22;;;;;;;5.80;3.17;;;17.60;1.00;;;;;;5011183;28;20463;-76
2022/07/10 04:34:48;;;;;;;4.37;3.20;;;17.60;1.00;;;;;;4992282;28;20553;-76
2022/07/10 04:37:13;;;;;;;4.13;2.63;;;17.70;1.00;;;;;;5020630;28;20312;-76
2022/07/10 04:39:39;;;;;;;6.50;3.30;;;17.70;1.00;;;;;;5015658;28;20178;-76
2022/07/10 04:42:06;;;;;;;4.60;3.03;;;17.70;1.00;;;;;;5005884;28;20320;-75
2022/07/10 04:44:33;;;;;;;8.37;3.63;;;17.70;1.00;;;;;;5022352;28;20223;-78
2022/07/10 04:46:59;;;;;;;4.30;3.00;;;17.80;1.00;;;;;;5003708;28;21021;-75
2022/07/10 04:49:25;;;;;;;3.60;3.13;;;17.80;1.00;;;;;;5022505;28;20432;-75
2022/07/10 04:51:51;;;;;;;3.47;3.00;;;17.80;1.00;;;;;;5010965;28;20257;-76
2022/07/10 04:54:16;;;;;;;5.00;2.73;;;17.70;1.00;;;;;;5018826;28;20197;-76
2022/07/10 04:56:42;;;;;;;7.53;3.33;;;17.70;1.00;;;;;;5022708;28;20197;-75
2022/07/10 04:59:09;;;;;;;3.80;2.87;;;17.70;1.00;;;;;;5012537;28;20178;-76
2022/07/10 05:01:34;;;;;;;3.83;2.63;;;17.60;1.00;;;;;;4990277;28;20539;-75
2022/07/10 05:04:00;;;;;;;4.80;2.97;;;17.90;1.00;;;;;;5001929;28;20499;-76
2022/07/10 05:06:25;;;;;;;8.60;4.50;;;17.50;1.00;;;;;;5009959;28;20221;-76
2022/07/10 05:08:51;;;;;;;5.87;2.77;;;17.40;1.00;;;;;;5010282;28;20297;-76
2022/07/10 05:11:16;;;;;;;5.03;2.90;;;17.40;1.00;;;;;;5008878;28;20511;-76
2022/07/10 05:13:48;;;;;;;5.87;3.33;;;17.40;1.00;;;;;;5007483;28;20270;-75
2022/07/10 05:16:14;;;;;;;8.23;2.93;;;17.40;1.00;;;;;;5006073;28;20801;-77
2022/07/10 05:18:39;;;;;;;5.13;3.00;;;17.40;1.00;;;;;;5006029;28;20848;-77
2022/07/10 05:21:05;;;;;;;5.97;2.53;;;17.40;1.00;;;;;;5002256;28;20425;-75
2022/07/10 05:23:31;;;;;;;7.60;2.73;;;17.50;1.00;;;;;;5007494;28;20229;-76
2022/07/10 05:25:56;;;;;;;4.57;2.40;;;17.70;1.00;;;;;;5008026;28;20190;-76
2022/07/10 05:28:22;;;;;;;5.03;2.80;;;17.80;1.00;;;;;;5008477;28;20194;-77
2022/07/10 05:30:48;;;;;;;6.87;2.70;;;17.90;1.00;;;;;;5012705;28;20187;-76
2022/07/10 05:33:17;;;;;;;4.30;2.80;;;17.90;1.00;;;;;;5003987;28;20261;-76
2022/07/10 05:35:43;;;;;;;3.40;2.57;;;18.00;1.00;;;;;;5004745;28;20995;-76
2022/07/10 05:38:08;;;;;;;3.70;2.57;;;18.00;1.00;;;;;;5004287;28;20465;-77
2022/07/10 05:40:34;;;;;;;7.50;3.40;;;18.00;1.00;;;;;;5007038;28;20465;-76
2022/07/10 05:42:59;;;;;;;4.50;2.60;;;18.10;1.00;;;;;;5002861;28;20177;-76
2022/07/10 05:45:25;;;;;;;4.30;2.90;;;18.00;1.00;;;;;;5004066;28;20316;-77
2022/07/10 05:47:51;;;;;;;6.70;2.90;;;18.00;1.00;;;;;;5005124;28;20716;-76
2022/07/10 05:50:16;;;;;;;6.10;2.67;;;18.00;1.00;;;;;;5011599;28;20235;-76
2022/07/10 05:52:42;;;;;;;5.53;2.43;;;17.90;1.00;;;;;;5007229;28;20670;-76
2022/07/10 05:55:08;;;;;;;6.00;3.20;;;17.70;1.00;;;;;;5004573;28;20591;-77
2022/07/10 05:57:34;;;;;;;5.77;2.83;;;17.60;1.00;;;;;;5005574;28;20208;-76
2022/07/10 06:00:00;;;;;;;3.40;2.47;;;17.60;1.00;;;;;;4993861;28;20326;-76
2022/07/10 06:02:25;;;;;;;10.33;2.63;;;17.60;1.00;;;;;;5010412;28;20189;-75
2022/07/10 06:04:51;;;;;;;6.00;2.40;;;17.70;1.00;;;;;;5005329;28;20437;-76
2022/07/10 06:07:17;;;;;;;6.33;2.53;;;17.70;1.00;;;;;;4986825;28;20218;-76
2022/07/10 06:09:42;;;;;;;5.00;2.53;;;17.70;1.00;;;;;;5005979;28;20202;-76
2022/07/10 06:12:08;;;;;;;5.97;2.30;;;17.70;1.00;;;;;;5004163;28;20672;-75
2022/07/10 06:14:34;;;;;;;6.80;2.40;;;17.70;1.00;;;;;;5008041;28;20166;-76
2022/07/10 06:16:59;;;;;;;6.43;2.53;;;17.70;1.00;;;;;;5010069;28;20217;-76
2022/07/10 06:19:25;;;;;;;6.80;3.20;;;19.30;1.00;;;;;;4988155;28;20171;-76
2022/07/10 06:22:30;;;;;;;4.27;2.30;;;17.80;1.00;;;;;;5003544;28;20183;-76
2022/07/10 06:24:36;;;;;;;4.43;2.33;;;17.80;1.00;;;;;;5005091;28;20175;-76
2022/07/10 06:27:01;;;;;;;4.13;2.27;;;17.80;1.00;;;;;;5006286;28;20595;-76
2022/07/10 06:29:27;;;;;;;7.83;2.60;;;17.70;1.00;;;;;;5014568;28;20189;-75
2022/07/10 06:31:52;;;;;;;4.43;2.60;;;17.70;1.00;;;;;;5003086;28;20182;-75
2022/07/10 06:34:19;;;;;;;4.40;2.20;;;17.80;1.00;;;;;;5004332;28;20285;-74
2022/07/10 06:36:44;;;;;;;5.50;2.63;;;17.90;1.00;;;;;;5004860;28;20274;-76
2022/07/10 06:39:10;;;;;;;3.57;2.20;;;18.00;1.00;;;;;;5006785;28;20917;-77
2022/07/10 06:41:35;;;;;;;7.73;2.33;;;18.40;1.00;;;;;;5008193;28;20206;-75
2022/07/10 06:44:02;;;;;;;4.80;2.57;;;18.30;1.00;;;;;;5020349;28;20398;-76
2022/07/10 06:46:27;;;;;;;5.77;3.23;;;18.40;1.00;;;;;;5012048;28;20197;-76
2022/07/10 06:48:53;;;;;;;7.77;3.40;;;18.40;1.00;;;;;;5017277;28;20429;-76
2022/07/10 06:51:18;;;;;;;3.03;2.30;;;18.40;1.00;;;;;;4990027;28;20186;-76
2022/07/10 06:53:44;;;;;;;6.43;2.60;;;18.60;1.00;;;;;;5023816;28;20296;-76
2022/07/10 06:56:10;;;;;;;4.10;2.43;;;18.90;1.00;;;;;;5004629;28;20652;-76
2022/07/10 06:58:36;;;;;;;8.40;2.60;;;19.00;1.00;;;;;;5007567;28;20531;-75
2022/07/10 07:01:01;;;;;;;6.17;2.47;;;18.90;1.00;;;;;;4999350;28;20182;-75
2022/07/10 07:03:27;;;;;;;5.97;2.23;;;18.80;1.00;;;;;;5006147;28;20269;-76
2022/07/10 07:05:52;;;;;;;9.03;2.60;;;18.90;1.00;;;;;;5003952;28;20191;-76
2022/07/10 07:08:18;;;;;;;7.20;2.70;;;18.80;1.00;;;;;;5005643;28;20637;-77
2022/07/10 07:10:44;;;;;;;8.93;2.80;;;18.80;1.00;;;;;;5004249;28;20439;-76
2022/07/10 07:13:10;;;;;;;6.30;2.30;;;18.90;1.00;;;;;;5006126;28;20291;-76
2022/07/10 07:15:38;;;;;;;5.53;2.60;;;19.20;1.00;;;;;;5003407;28;20726;-76
2022/07/10 07:18:12;;;;;;;15.93;9.93;;;19.80;1.00;;;;;;5015236;28;20583;-76
2022/07/10 07:23:23;;;;;;;7.97;3.30;;;20.40;1.00;;;;;;5010888;28;20395;-76
2022/07/10 07:25:49;;;;;;;13.50;6.53;;;20.20;1.00;;;;;;5022581;28;20436;-75
2022/07/10 07:28:15;;;;;;;14.67;5.53;;;20.10;1.00;;;;;;5025467;28;20471;-76
2022/07/10 07:30:42;;;;;;;9.20;3.90;;;20.10;1.00;;;;;;5014412;28;20195;-77
2022/07/10 07:33:07;;;;;;;17.97;8.60;;;20.20;1.00;;;;;;5006745;28;20506;-76
2022/07/10 07:35:33;;;;;;;8.17;2.20;;;20.30;1.00;;;;;;5012604;28;20448;-76
2022/07/10 07:38:00;;;;;;;3.80;2.00;;;20.30;1.00;;;;;;5007358;28;20198;-77
2022/07/10 07:40:26;;;;;;;5.57;2.27;;;20.10;1.00;;;;;;5015856;28;20216;-76
2022/07/10 07:42:53;;;;;;;5.00;2.20;;;20.80;1.00;;;;;;5007854;28;20473;-77
2022/07/10 07:45:19;;;;;;;10.50;3.53;;;21.30;1.00;;;;;;5009984;28;20723;-76
2022/07/10 07:47:46;;;;;;;4.80;2.27;;;21.80;1.00;;;;;;5026715;28;20478;-76
2022/07/10 07:50:16;;;;;;;7.20;3.33;;;22.10;1.00;;;;;;5006126;28;20437;-76
2022/07/10 07:52:42;;;;;;;5.73;2.50;;;22.10;1.00;;;;;;4999558;28;20992;-76
2022/07/10 07:55:08;;;;;;;4.87;1.80;;;22.10;1.00;;;;;;5007809;28;20433;-75
2022/07/10 07:57:33;;;;;;;3.67;1.80;;;22.00;1.00;;;;;;5010334;28;20204;-75
2022/07/10 07:59:59;;;;;;;6.70;2.47;;;22.00;1.00;;;;;;5024687;28;20691;-76
2022/07/10 08:02:24;;;;;;;5.83;1.87;;;21.90;1.00;;;;;;5019892;28;20197;-75
2022/07/10 08:04:50;;;;;;;3.37;1.60;;;21.90;1.00;;;;;;5018760;28;20679;-76
2022/07/10 08:07:15;;;;;;;3.60;1.63;;;22.10;1.00;;;;;;5014899;28;20193;-77
2022/07/10 08:09:41;;;;;;;5.50;1.90;;;22.30;1.00;;;;;;5010300;28;20197;-75
2022/07/10 08:12:07;;;;;;;3.97;1.70;;;22.30;1.00;;;;;;5010123;28;20189;-75
2022/07/10 08:14:32;;;;;;;3.00;1.63;;;22.20;1.00;;;;;;4993200;28;20244;-75
2022/07/10 08:16:58;;;;;;;3.93;1.63;;;22.50;1.00;;;;;;5010242;28;20315;-75
2022/07/10 08:19:23;;;;;;;6.10;1.70;;;22.70;1.00;;;;;;5007406;28;20273;-76
2022/07/10 08:21:49;;;;;;;2.67;1.50;;;22.50;1.00;;;;;;5010639;28;20186;-75
2022/07/10 08:24:14;;;;;;;4.13;1.73;;;22.50;1.00;;;;;;5030234;28;20181;-75
2022/07/10 08:26:40;;;;;;;4.03;1.60;;;22.70;1.00;;;;;;5030001;28;20197;-76
2022/07/10 08:29:06;;;;;;;6.30;2.00;;;22.40;1.00;;;;;;4989253;28;20189;-75
2022/07/10 08:31:33;;;;;;;10.40;1.87;;;22.20;1.00;;;;;;4993819;28;20190;-75
2022/07/10 08:33:59;;;;;;;4.63;1.47;;;22.70;1.00;;;;;;5018642;28;20209;-76
2022/07/10 08:36:26;;;;;;;3.80;1.53;;;23.10;1.00;;;;;;5029941;28;20539;-78
2022/07/10 08:38:53;;;;;;;4.90;1.47;;;22.90;1.00;;;;;;5029836;28;20442;-75
2022/07/10 08:41:24;;;;;;;2.40;1.20;;;23.00;1.00;;;;;;4994084;28;20886;-75
2022/07/10 08:43:50;;;;;;;2.93;1.50;;;22.90;1.00;;;;;;4992930;28;20413;-76
2022/07/10 08:46:16;;;;;;;4.20;1.50;;;22.80;1.00;;;;;;4997351;28;20996;-75
2022/07/10 08:48:44;;;;;;;3.30;1.53;;;22.90;1.00;;;;;;5007582;28;20185;-75
2022/07/10 08:51:16;;;;;;;5.00;1.53;;;23.00;1.00;;;;;;5021709;28;20490;-77
2022/07/10 08:53:42;;;;;;;3.60;1.50;;;24.60;1.00;;;;;;5027819;28;20468;-76
2022/07/10 08:56:09;;;;;;;2.43;1.40;;;23.40;1.00;;;;;;5029731;28;20511;-75
2022/07/10 08:58:36;;;;;;;3.50;1.50;;;23.40;1.00;;;;;;5020045;28;20421;-76
2022/07/10 09:01:01;;;;;;;2.70;1.40;;;23.40;1.00;;;;;;5006827;28;20427;-75
2022/07/10 09:03:29;;;;;;;4.60;1.60;;;23.50;1.00;;;;;;5008651;28;20446;-75
2022/07/10 09:05:54;;;;;;;4.83;1.40;;;23.60;1.00;;;;;;5009598;28;20170;-76
2022/07/10 09:08:32;;;;;;;3.20;1.70;;;24.00;1.00;;;;;;5008295;28;20425;-74
2022/07/10 09:11:18;;;;;;;3.27;1.40;;;25.10;1.00;;;;;;5009569;28;20161;-75
2022/07/10 09:13:54;;;;;;;4.27;1.53;;;24.30;1.00;;;;;;4992932;28;20460;-76
2022/07/10 09:16:30;;;;;;;3.77;1.47;;;26.70;1.00;;;;;;5022197;28;20436;-76
2022/07/10 09:18:56;;;;;;;3.83;1.40;;;28.10;1.00;;;;;;5011959;28;20470;-75
2022/07/10 09:21:23;;;;;;;3.23;1.30;;;29.30;1.00;;;;;;5028184;28;20257;-76
2022/07/10 09:23:48;;;;;;;4.40;1.60;;;30.10;1.00;;;;;;5028118;28;20619;-76
2022/07/10 09:26:15;;;;;;;3.53;1.60;;;30.80;1.00;;;;;;5029333;28;20205;-74
2022/07/10 09:28:40;;;;;;;2.78;1.30;;;31.40;1.00;;;;;;5016128;28;20186;-74
2022/07/10 09:31:06;;;;;;;3.67;1.48;;;31.90;1.00;;;;;;5018865;28;20232;-75
2022/07/10 09:33:34;;;;;;;3.13;1.30;;;32.00;1.00;;;;;;5028307;28;20205;-78
2022/07/10 09:36:11;;;;;;;4.82;1.50;;;31.80;1.00;;;;;;4992530;28;20193;-76
2022/07/10 09:38:43;;;;;;;3.13;1.42;;;31.70;1.00;;;;;;5004558;28;20185;-77
2022/07/10 09:41:12;;;;;;;3.08;1.30;;;31.50;1.00;;;;;;5014276;28;20340;-76
2022/07/10 09:43:56;;;;;;;3.75;1.65;;;31.10;1.00;;;;;;4990092;28;20170;-75
2022/07/10 09:46:26;;;;;;;3.20;1.30;;;31.40;1.00;;;;;;5009884;28;20267;-76
2022/07/10 09:49:04;;;;;;;5.78;1.65;;;32.30;1.00;;;;;;4993594;28;20236;-76
2022/07/10 09:51:32;;;;;;;3.25;1.50;;;32.50;1.00;;;;;;5021803;28;20571;-77
2022/07/10 09:54:00;;;;;;;2.63;1.35;;;33.00;1.00;;;;;;5013373;28;20236;-76
2022/07/10 09:56:27;;;;;;;7.18;1.35;;;33.20;1.00;;;;;;5014372;28;20647;-76
2022/07/10 09:58:58;;;;;;;4.88;1.58;;;33.10;1.00;;;;;;5015479;28;20182;-76
2022/07/10 10:01:23;;;;;;;8.57;1.90;;;32.10;1.00;;;;;;5026340;28;20267;-75
2022/07/10 10:03:49;;;;;;;3.95;1.33;;;30.60;1.00;;;;;;5027402;28;20189;-76
2022/07/10 10:06:16;;;;;;;3.03;1.30;;;30.00;1.00;;;;;;5007407;28;20198;-76
2022/07/10 10:08:56;;;;;;;3.88;1.90;;;29.60;1.00;;;;;;5006775;28;20613;-75
2022/07/10 10:11:25;;;;;;;4.35;1.60;;;29.00;1.00;;;;;;4988893;28;20185;-76
2022/07/10 10:13:52;;;;;;;3.40;1.40;;;28.00;1.00;;;;;;4990399;28;20764;-76
2022/07/10 10:16:19;;;;;;;4.03;1.40;;;28.80;1.00;;;;;;5004613;28;20449;-76
2022/07/10 10:21:29;;;;;;;3.38;1.50;;;31.80;1.00;;;;;;5005393;28;20185;-78
2022/07/10 10:23:56;;;;;;;7.03;2.50;;;32.70;1.00;;;;;;4989571;28;20555;-77
2022/07/10 10:26:24;;;;;;;3.90;2.55;;;33.50;1.00;;;;;;5006332;28;20220;-77
2022/07/10 10:28:52;;;;;;;5.68;1.70;;;34.30;1.00;;;;;;5009830;28;20628;-77
2022/07/10 10:31:20;;;;;;;3.15;1.33;;;35.00;1.00;;;;;;5006603;28;20252;-77
2022/07/10 10:33:47;;;;;;;3.33;1.42;;;35.60;1.00;;;;;;5006393;28;20602;-77
2022/07/10 10:36:17;;;;;;;2.38;1.15;;;34.60;1.00;;;;;;5007235;28;20288;-77
2022/07/10 10:38:48;;;;;;;4.03;1.70;;;32.60;1.00;;;;;;5008794;28;20173;-76
2022/07/10 10:41:23;;;;;;;5.90;1.42;;;30.80;1.00;;;;;;5004845;28;20181;-78
2022/07/10 10:44:13;;;;;;;3.67;1.50;;;29.90;1.00;;;;;;4999534;28;20208;-76
2022/07/10 10:46:53;;;;;;;2.97;1.40;;;30.30;1.00;;;;;;5005559;28;20197;-76
2022/07/10 10:49:20;;;;;;;4.78;1.42;;;31.30;1.00;;;;;;5013045;28;20696;-77
2022/07/10 10:52:00;;;;;;;2.95;1.40;;;31.40;1.00;;;;;;4987703;28;20190;-77
2022/07/10 10:54:57;;;;;;;5.03;1.33;;;31.30;1.00;;;;;;5006316;28;20173;-76
2022/07/10 10:57:32;;;;;;;4.40;1.60;;;30.70;1.00;;;;;;5006692;28;20193;-77
2022/07/10 11:00:06;;;;;;;3.00;1.30;;;29.90;1.00;;;;;;5010879;28;20771;-76
2022/07/10 11:02:34;;;;;;;3.15;1.45;;;30.00;1.00;;;;;;5008888;28;20710;-77
2022/07/10 11:05:12;;;;;;;5.13;1.50;;;31.80;1.00;;;;;;5002336;28;20182;-77
2022/07/10 11:08:04;;;;;;;3.35;1.55;;;34.00;1.00;;;;;;5009750;28;20225;-78
2022/07/10 11:10:35;;;;;;;4.50;2.28;;;35.00;1.00;;;;;;5004121;28;20732;-78
2022/07/10 11:13:07;;;;;;;3.90;2.28;;;33.60;1.00;;;;;;4998529;28;20708;-76
2022/07/10 11:15:38;;;;;;;4.25;2.72;;;33.00;1.00;;;;;;5006989;28;20261;-76
2022/07/10 11:18:07;;;;;;;4.18;1.58;;;32.30;1.00;;;;;;5006913;28;20204;-77
2022/07/10 11:20:49;;;;;;;3.22;1.48;;;33.20;1.00;;;;;;5009843;28;20563;-76
2022/07/10 11:23:51;;;;;;;5.05;1.95;;;33.20;1.00;;;;;;5002134;28;20182;-76
2022/07/10 11:26:29;;;;;;;3.55;1.50;;;32.70;1.00;;;;;;5004844;28;20312;-76
2022/07/10 11:29:02;;;;;;;2.63;1.33;;;32.00;1.00;;;;;;5011955;28;20181;-75
2022/07/10 11:31:29;;;;;;;6.43;2.30;;;32.00;1.00;;;;;;4999023;28;20189;-75
2022/07/10 11:33:56;;;;;;;5.53;2.80;;;32.20;1.00;;;;;;5006569;28;20335;-76
2022/07/10 11:36:30;;;;;;;5.10;1.88;;;33.70;1.00;;;;;;5008232;28;20198;-76
2022/07/10 11:38:59;;;;;;;3.42;1.90;;;35.50;1.00;;;;;;5009454;28;20185;-76
2022/07/10 11:41:25;;;;;;;3.97;1.60;;;36.00;1.00;;;;;;5006037;28;20182;-77
2022/07/10 11:44:15;;;;;;;4.07;2.20;;;36.60;1.00;;;;;;5012221;28;20676;-76
2022/07/10 11:46:44;;;;;;;5.38;2.58;;;36.80;1.00;;;;;;4988200;28;20644;-76
2022/07/10 11:49:10;;;;;;;4.45;2.05;;;36.20;1.00;;;;;;5010789;28;20174;-77
2022/07/10 11:51:39;;;;;;;6.18;1.58;;;36.70;1.00;;;;;;5008666;28;20582;-77
2022/07/10 11:54:06;;;;;;;3.33;1.60;;;37.00;1.00;;;;;;4998816;28;20648;-76
2022/07/10 11:56:34;;;;;;;4.55;1.60;;;37.80;1.00;;;;;;5008450;28;20772;-77
2022/07/10 11:59:04;;;;;;;3.67;1.52;;;38.10;1.00;;;;;;5014254;28;20169;-78
2022/07/10 12:01:32;;;;;;;3.58;1.50;;;38.30;1.00;;;;;;5011815;28;20628;-76
2022/07/10 12:04:00;;;;;;;3.80;2.00;;;38.20;1.00;;;;;;5011548;28;20235;-77
2022/07/10 12:06:26;;;;;;;3.33;1.60;;;38.00;1.00;;;;;;5009530;28;20201;-78
2022/07/10 12:08:52;;;;;;;3.47;1.48;;;38.00;1.00;;;;;;4999687;28;20185;-76
2022/07/10 12:11:20;;;;;;;3.05;1.25;;;38.60;1.00;;;;;;4992461;28;20738;-76
2022/07/10 12:13:47;;;;;;;5.20;1.55;;;38.90;1.00;;;;;;5018726;28;20237;-75
2022/07/10 12:16:13;;;;;;;3.92;1.40;;;39.00;1.00;;;;;;5008310;28;20194;-75
2022/07/10 12:18:41;;;;;;;3.97;1.42;;;38.90;1.00;;;;;;5006996;28;20663;-75
2022/07/10 12:21:08;;;;;;;3.47;1.38;;;38.30;1.00;;;;;;5007708;28;20194;-75
2022/07/10 12:23:38;;;;;;;2.67;1.48;;;38.00;1.00;;;;;;5009841;28;20184;-76
2022/07/10 12:26:04;;;;;;;3.63;1.30;;;37.90;1.00;;;;;;4994260;28;20636;-78
2022/07/10 12:28:29;;;;;;;5.32;1.63;;;37.80;1.00;;;;;;5017649;28;20322;-76
2022/07/10 12:30:55;;;;;;;3.63;1.50;;;38.70;1.00;;;;;;5011400;28;20196;-76
2022/07/10 12:33:23;;;;;;;4.68;1.70;;;39.70;1.00;;;;;;5022475;28;20213;-78
2022/07/10 12:35:53;;;;;;;4.10;1.60;;;40.40;1.00;;;;;;5009841;28;20635;-76
2022/07/10 12:38:24;;;;;;;7.03;1.50;;;40.40;1.00;;;;;;5028760;28;20165;-76
2022/07/10 12:40:54;;;;;;;3.28;1.58;;;40.30;1.00;;;;;;5007541;28;20181;-76
2022/07/10 12:43:29;;;;;;;3.53;1.40;;;40.80;1.00;;;;;;5010215;28;20210;-76
2022/07/10 12:46:22;;;;;;;5.55;1.52;;;40.50;1.00;;;;;;5018816;28;20187;-76
2022/07/10 12:49:08;;;;;;;4.20;1.38;;;40.50;1.00;;;;;;5025480;28;20201;-79
2022/07/10 12:51:49;;;;;;;4.90;1.70;;;40.10;1.00;;;;;;5007547;28;20180;-76
2022/07/10 12:54:32;;;;;;;3.95;1.52;;;39.80;1.00;;;;;;4992016;28;20745;-75
2022/07/10 12:56:58;;;;;;;4.05;1.67;;;40.50;1.00;;;;;;5013077;28;20198;-76
2022/07/10 12:59:24;;;;;;;6.00;1.60;;;41.50;1.00;;;;;;5016308;28;20667;-76
2022/07/10 13:01:50;;;;;;;4.47;1.70;;;41.60;1.00;;;;;;5002846;28;20181;-77
2022/07/10 13:04:23;;;;;;;4.13;1.50;;;41.50;1.00;;;;;;5009438;28;20182;-76